Aktuální počasí v Česku a ve světě - METAR

Seznam meteostanic umístěných nejčasteji na letišti v ČR a ve světě

Vyhledat místa podle abecedy:
A B C D E F G H I J K L M N O P Q R S T U V W X Y Z

Filtrovat:

ID stanice:
a/nebo
Název místa (fulltext):
 
Místo (ID)Naposledy načteno 
Aalborg (EKYT) 16.07.2020 13:50 UTC Zobrazit METAR
EKYT 161350Z AUTO 29007KT 250V340 9999 SCT033/// 19/11 Q1016
Aarhus (EKAH) 14.07.2020 13:50 UTC Zobrazit METAR
EKAH 141350Z 20004KT 130V250 9999 BKN011 16/14 Q1012
Abu Dhabi (OMAA) 16.07.2020 14:00 UTC Zobrazit METAR
OMAA 161400Z 34017KT 8000 NSC 39/27 Q0992 NOSIG
Abuja (DNAA) 16.07.2020 14:00 UTC Zobrazit METAR
DNAA 161400Z 28005KT 9999 BKN014 30/23 Q1013 NOSIG
Accra (DGAA) 16.07.2020 14:00 UTC Zobrazit METAR
DGAA 161400Z 21012KT 9999 FEW028 BKN034 BKN040 28/22 Q1013 NOSIG
Addis Abeba (HAAB) 16.07.2020 13:00 UTC Zobrazit METAR
HAAB 161300Z 18006KT 9999 BKN025 BKN070 15/13 Q1025
Agana (PGUM) 16.07.2020 13:54 UTC Zobrazit METAR
PGUM 161354Z 07009KT 10SM -RA FEW026 SCT070 SCT090 28/24 A2987 RMK AO2 RAB11E20B53 SLP106 P0000 T02830239 403220272
Ahe Island (NTHE) Zatím nenačteno  
Akureyri (BIAR) 16.07.2020 14:00 UTC Zobrazit METAR
BIAR 161400Z 34009KT 9999 -RA SCT020 BKN052 13/10 Q0980
Almaty (UAAA) Zatím nenačteno  
Amman (OJAM) 16.07.2020 14:00 UTC Zobrazit METAR
OJAM 161400Z 31010KT 7000 NSC 32/13 Q1009 NOSIG
Amsterdam (EHAM) 16.07.2020 13:55 UTC Zobrazit METAR
EHAM 161355Z 31014KT 9999 SCT019 20/14 Q1017 NOSIG
Antananarivo (FMMI) 16.07.2020 14:00 UTC Zobrazit METAR
FMMI 161400Z 14010KT 9999 FEW017 BKN020 16/11 Q1023 NOSIG
Antwerp (EBAW) 16.07.2020 12:50 UTC Zobrazit METAR
EBAW 161250Z 32013KT 270V330 9999 FEW014 BKN040 16/13 Q1018 NOSIG
Apia (NSFA) 16.07.2020 11:00 UTC Zobrazit METAR
NSFA 161100Z 08005KT 9999 FEW022 SCT052 BKN160 23/22 Q1011 RMK
Aruba I (TNCA) 16.07.2020 14:00 UTC Zobrazit METAR
TNCA 161400Z 11016KT 9999 SCT022 31/22 Q1013 NOSIG
Ascension I. (FHAW) 09.07.2020 11:50 UTC Zobrazit METAR
FHAW 091150Z 17016KT 9999 FEW032 27/17 Q1017 NOSIG RMK BLU BLU
Ashgabat (UTAA) 16.07.2020 12:00 UTC Zobrazit METAR
UTAA 161200Z 20008KT 9999 SCT049 BKN099 34/14 Q1004 R88/CLRD70 NOSIG
Asmara (HHAS) 03.02.2015 17:00 UTC Zobrazit METAR
HHAS 031700Z 27004KT CAVOK 15/06 Q1028 NOSIG
Astana (UACC) Zatím nenačteno  
Astrakhan (URWA) Zatím nenačteno  
Asuncion (SGAS) 16.07.2020 14:00 UTC Zobrazit METAR
SGAS 161400Z 04008KT 9999 FEW030 BKN080 23/18 Q1017
Athens (LGAV) 16.07.2020 13:50 UTC Zobrazit METAR
LGAV 161350Z 06008KT 010V090 9999 SCT025 29/09 Q1010 NOSIG
Reklama

Počasí na Váš email

Emaily jsou bez reklamy a bez spamu



Odhlásit newsletter



❤️ Podpořte nás

Napište o nás recenzi na Google
Ohodnoťte nás na Firmy.cz

Pošlete nám finanční podporu - firma nedostala žádné dotace ani podporu z Coronaviru, zato letos platíme vyšší daně.
Další české internetové stránky (nejen) o počasí najdete v katalogu TOPlist - weby o počasí nebo vyhledejte na internetu, co jste tu na 🌞 Slunečnu ⛅ zatím nenašli:
⬆️ Posunout nahoru ⬆️
Reklama